createdAt,value
2022-11-17T00:01:39.459Z,1.06
2022-11-17T00:04:11.221Z,1.03
2022-11-17T00:06:39.571Z,1.06
2022-11-17T00:09:12.328Z,1.00
2022-11-17T00:11:54.606Z,1.00
2022-11-17T00:14:34.444Z,1.07
2022-11-17T00:17:05.771Z,1.03
2022-11-17T00:19:53.298Z,1.01
2022-11-17T00:22:22.423Z,0.98
2022-11-17T00:24:51.109Z,0.99
2022-11-17T00:27:19.579Z,1.04
2022-11-17T00:29:47.690Z,0.98
2022-11-17T00:32:34.987Z,0.96
2022-11-17T00:35:05.877Z,0.96
2022-11-17T00:37:37.021Z,1.02
2022-11-17T00:40:05.728Z,0.97
2022-11-17T00:42:34.153Z,0.94
2022-11-17T00:45:02.225Z,1.01
2022-11-17T00:47:30.595Z,1.02
2022-11-17T00:49:58.669Z,1.05
2022-11-17T00:52:28.408Z,1.04
2022-11-17T00:54:56.248Z,1.09
2022-11-17T00:57:24.631Z,1.09
2022-11-17T00:59:52.715Z,1.06
2022-11-17T01:02:21.102Z,1.08
2022-11-17T01:04:49.188Z,1.05
2022-11-17T01:07:17.588Z,1.03
2022-11-17T01:09:47.065Z,1.04
2022-11-17T01:12:17.759Z,0.90
2022-11-17T01:14:46.240Z,1.04
2022-11-17T01:17:17.944Z,1.00
2022-11-17T01:19:46.116Z,1.02
2022-11-17T01:22:14.545Z,1.02
2022-11-17T01:24:42.594Z,1.06
2022-11-17T01:27:12.515Z,1.01
2022-11-17T01:29:40.763Z,0.97
2022-11-17T01:32:09.122Z,1.02
2022-11-17T01:34:37.520Z,1.03
2022-11-17T01:37:21.204Z,0.97
2022-11-17T01:39:50.396Z,0.97
2022-11-17T01:42:22.313Z,0.87
2022-11-17T01:44:59.207Z,0.91
2022-11-17T01:47:34.011Z,0.95
2022-11-17T01:50:07.993Z,0.97
2022-11-17T01:52:39.198Z,1.02
2022-11-17T01:55:10.007Z,0.98
2022-11-17T01:57:47.760Z,0.96
2022-11-17T02:00:17.507Z,0.91
2022-11-17T02:02:48.571Z,0.91
2022-11-17T02:05:28.337Z,0.90
2022-11-17T02:07:59.436Z,0.77
2022-11-17T02:10:29.818Z,0.89
2022-11-17T02:12:59.983Z,0.91
2022-11-17T02:15:29.334Z,0.97
2022-11-17T02:17:59.520Z,0.91
2022-11-17T02:20:42.821Z,0.91
2022-11-17T02:23:39.259Z,0.96
2022-11-17T02:26:38.749Z,0.96
2022-11-17T02:29:18.073Z,0.94
2022-11-17T02:31:54.208Z,0.97
2022-11-17T02:34:35.856Z,0.96
2022-11-17T02:37:12.115Z,0.97
2022-11-17T02:39:48.511Z,0.91
2022-11-17T02:42:45.132Z,0.89
2022-11-17T02:45:20.084Z,0.90
2022-11-17T02:47:51.831Z,0.87
2022-11-17T02:50:27.998Z,0.90
2022-11-17T02:52:56.728Z,0.95
2022-11-17T02:55:25.111Z,0.91
2022-11-17T02:57:53.259Z,0.89
2022-11-17T03:00:23.167Z,0.92
2022-11-17T03:03:21.176Z,0.88
2022-11-17T03:05:59.800Z,0.90
2022-11-17T03:08:37.358Z,0.91
2022-11-17T03:11:08.178Z,0.86
2022-11-17T03:13:45.326Z,0.90
2022-11-17T03:16:26.327Z,0.75
2022-11-17T03:19:03.105Z,0.90
2022-11-17T03:21:37.781Z,0.85
2022-11-17T03:24:12.670Z,0.73
2022-11-17T03:26:45.713Z,0.86
2022-11-17T03:29:17.016Z,0.83
2022-11-17T03:31:50.439Z,0.87
2022-11-17T03:34:21.127Z,0.85
2022-11-17T03:36:53.500Z,0.80
2022-11-17T03:39:26.240Z,0.78
2022-11-17T03:41:58.644Z,0.80
2022-11-17T03:44:29.976Z,0.81
2022-11-17T03:47:03.853Z,0.80
2022-11-17T03:49:40.983Z,0.78
2022-11-17T03:52:10.025Z,0.79
2022-11-17T03:54:38.707Z,0.78
2022-11-17T03:57:13.959Z,0.71
2022-11-17T03:59:55.127Z,0.76
2022-11-17T04:02:26.412Z,0.69
2022-11-17T04:05:06.820Z,0.67
2022-11-17T04:07:36.584Z,0.68
2022-11-17T04:10:05.057Z,0.73
2022-11-17T04:12:51.233Z,0.68
2022-11-17T04:15:36.892Z,0.65
2022-11-17T04:18:07.096Z,0.64
2022-11-17T04:20:37.062Z,0.66
2022-11-17T04:23:09.190Z,0.63
2022-11-17T04:25:56.242Z,0.57
2022-11-17T04:28:38.401Z,0.54
2022-11-17T04:31:12.968Z,0.57
2022-11-17T04:33:44.985Z,0.56
2022-11-17T04:36:14.670Z,0.60
2022-11-17T04:38:44.021Z,0.58
2022-11-17T04:41:31.474Z,0.58
2022-11-17T04:44:02.079Z,0.58
2022-11-17T04:46:31.677Z,0.59
2022-11-17T04:49:02.449Z,0.58
2022-11-17T04:51:31.492Z,0.22
2022-11-17T04:54:00.147Z,0.58
2022-11-17T04:56:29.924Z,0.61
2022-11-17T04:58:58.909Z,0.58
2022-11-17T05:01:28.247Z,0.55
2022-11-17T05:03:57.950Z,0.56
2022-11-17T05:06:29.060Z,0.53
2022-11-17T05:08:58.028Z,0.43
2022-11-17T05:11:45.122Z,0.54
2022-11-17T05:14:15.387Z,0.49
2022-11-17T05:17:07.352Z,0.56
2022-11-17T05:19:39.812Z,0.53
2022-11-17T05:22:24.985Z,0.53
2022-11-17T05:24:53.324Z,0.50
2022-11-17T05:27:21.934Z,0.48
2022-11-17T05:29:50.512Z,0.48
2022-11-17T05:32:19.115Z,0.50
2022-11-17T05:34:47.641Z,0.48
2022-11-17T05:37:17.330Z,0.49
2022-11-17T05:39:45.667Z,0.52
2022-11-17T05:42:13.737Z,0.48
2022-11-17T05:44:43.643Z,0.48
2022-11-17T05:47:11.756Z,0.49
2022-11-17T05:49:40.092Z,0.49
2022-11-17T05:52:08.321Z,0.51
2022-11-17T05:54:38.091Z,0.48
2022-11-17T05:57:08.320Z,0.51
2022-11-17T05:59:43.235Z,0.47
2022-11-17T06:02:15.327Z,0.50
2022-11-17T06:04:46.416Z,0.48
2022-11-17T06:07:15.113Z,0.49
2022-11-17T06:09:44.550Z,0.49
2022-11-17T06:12:13.329Z,0.48
2022-11-17T06:14:41.359Z,0.47
2022-11-17T06:17:17.536Z,0.46
2022-11-17T06:19:55.330Z,0.47
2022-11-17T06:22:24.074Z,0.48
2022-11-17T06:24:54.185Z,0.48
2022-11-17T06:27:23.096Z,0.44
2022-11-17T06:29:51.506Z,0.45
2022-11-17T06:32:20.884Z,0.42
2022-11-17T06:34:55.636Z,0.44
2022-11-17T06:37:25.710Z,0.48
2022-11-17T06:39:55.229Z,0.51
2022-11-17T06:42:43.995Z,0.51
2022-11-17T06:45:13.240Z,0.52
2022-11-17T06:47:41.401Z,0.49
2022-11-17T06:50:12.452Z,0.53
2022-11-17T06:52:40.887Z,0.53
2022-11-17T06:55:11.272Z,0.53
2022-11-17T06:57:39.553Z,0.58
2022-11-17T07:00:09.344Z,0.59
2022-11-17T07:02:37.800Z,0.52
2022-11-17T07:05:06.412Z,0.54
2022-11-17T07:07:35.035Z,0.51
2022-11-17T07:10:03.139Z,0.55
2022-11-17T07:12:34.340Z,0.54
2022-11-17T07:15:02.727Z,0.58
2022-11-17T07:17:31.087Z,0.56
2022-11-17T07:19:59.383Z,0.56
2022-11-17T07:22:27.838Z,0.58
2022-11-17T07:24:55.922Z,0.64
2022-11-17T07:27:24.239Z,0.64
2022-11-17T07:29:53.945Z,0.71
2022-11-17T07:32:22.381Z,0.69
2022-11-17T07:34:50.519Z,0.46
2022-11-17T07:37:19.088Z,0.71
2022-11-17T07:39:47.115Z,0.67
2022-11-17T07:42:15.799Z,0.64
2022-11-17T07:44:44.672Z,0.68
2022-11-17T07:47:14.404Z,0.69
2022-11-17T07:49:42.325Z,0.66
2022-11-17T07:52:12.050Z,0.62
2022-11-17T07:54:40.548Z,0.70
2022-11-17T07:57:08.873Z,0.64
2022-11-17T07:59:37.091Z,0.69
2022-11-17T08:02:05.442Z,0.71
2022-11-17T08:04:34.941Z,0.75
2022-11-17T08:07:03.431Z,0.78
2022-11-17T08:09:31.587Z,0.83
2022-11-17T08:12:00.363Z,0.89
2022-11-17T08:14:28.605Z,0.97
2022-11-17T08:16:56.923Z,0.91
2022-11-17T08:19:25.047Z,0.94
2022-11-17T08:21:54.875Z,0.89
2022-11-17T08:24:22.663Z,0.93
2022-11-17T08:26:51.044Z,0.96
2022-11-17T08:29:19.198Z,0.96
2022-11-17T08:31:47.857Z,1.07
2022-11-17T08:34:15.946Z,1.07
2022-11-17T08:36:44.341Z,0.99
2022-11-17T08:39:14.914Z,1.01
2022-11-17T08:41:43.242Z,1.12
2022-11-17T08:44:11.356Z,1.03
2022-11-17T08:46:39.706Z,1.06
2022-11-17T08:49:07.741Z,1.07
2022-11-17T08:51:36.427Z,0.84
2022-11-17T08:54:04.834Z,1.14
2022-11-17T08:56:34.513Z,1.19
2022-11-17T08:59:03.623Z,1.19
2022-11-17T09:01:32.065Z,1.21
2022-11-17T09:04:00.133Z,1.16
2022-11-17T09:06:28.603Z,1.15
2022-11-17T09:08:56.868Z,1.28
2022-11-17T09:11:25.401Z,1.33
2022-11-17T09:13:55.407Z,1.30
2022-11-17T09:16:25.319Z,1.32
2022-11-17T09:18:58.744Z,1.30
2022-11-17T09:21:27.514Z,1.37
2022-11-17T09:23:55.842Z,1.36
2022-11-17T09:26:24.363Z,1.40
2022-11-17T09:28:52.450Z,1.47
2022-11-17T09:31:24.087Z,1.50
2022-11-17T09:33:52.277Z,1.64
2022-11-17T09:36:20.784Z,1.69
2022-11-17T09:38:49.283Z,1.70
2022-11-17T09:41:24.354Z,1.76
2022-11-17T09:44:00.587Z,1.88
2022-11-17T09:46:42.512Z,1.98
2022-11-17T09:49:27.998Z,2.01
2022-11-17T09:52:01.738Z,2.12
2022-11-17T09:54:39.487Z,2.26
2022-11-17T09:57:20.082Z,2.16
2022-11-17T09:59:57.674Z,2.26
2022-11-17T10:02:27.665Z,2.35
2022-11-17T10:04:56.136Z,2.33
2022-11-17T10:07:24.803Z,2.03
2022-11-17T10:09:54.073Z,2.42
2022-11-17T10:12:25.073Z,2.52
2022-11-17T10:14:55.931Z,2.52
2022-11-17T10:17:24.441Z,2.54
2022-11-17T10:19:53.892Z,2.53
2022-11-17T10:22:35.694Z,2.23
2022-11-17T10:25:04.981Z,2.04
2022-11-17T10:27:35.502Z,1.90
2022-11-17T10:30:07.087Z,1.75
2022-11-17T10:32:39.928Z,1.38
2022-11-17T10:35:18.993Z,1.34
2022-11-17T10:37:55.877Z,1.06
2022-11-17T10:40:26.169Z,1.28
2022-11-17T10:43:24.106Z,1.24
2022-11-17T10:45:55.865Z,1.18
2022-11-17T10:48:32.159Z,1.22
2022-11-17T10:51:03.007Z,1.29
2022-11-17T10:53:41.264Z,1.36
2022-11-17T10:56:18.948Z,1.49
2022-11-17T10:59:00.528Z,1.40
2022-11-17T11:01:31.183Z,1.45
2022-11-17T11:03:59.735Z,1.43
2022-11-17T11:06:30.793Z,1.55
2022-11-17T11:09:03.112Z,1.65
2022-11-17T11:11:44.727Z,1.79
2022-11-17T11:14:19.384Z,1.80
2022-11-17T11:16:50.425Z,1.72
2022-11-17T11:19:20.601Z,1.61
2022-11-17T11:22:19.748Z,1.56
2022-11-17T11:24:55.982Z,1.43
2022-11-17T11:27:38.802Z,1.47
2022-11-17T11:30:12.432Z,1.48
2022-11-17T11:32:52.438Z,1.52
2022-11-17T11:35:34.526Z,1.41
2022-11-17T11:38:17.197Z,1.33
2022-11-17T11:40:56.255Z,1.17
2022-11-17T11:43:35.321Z,1.07
2022-11-17T11:46:15.649Z,1.07
2022-11-17T11:48:48.933Z,0.98
2022-11-17T11:51:19.873Z,1.03
2022-11-17T11:53:56.073Z,0.93
2022-11-17T11:56:32.991Z,0.96
2022-11-17T11:59:05.366Z,1.02
2022-11-17T12:01:44.889Z,1.14
2022-11-17T12:04:28.014Z,1.11
2022-11-17T12:07:05.791Z,1.29
2022-11-17T12:09:50.411Z,1.31
2022-11-17T12:12:21.177Z,1.35
2022-11-17T12:15:31.409Z,1.36
2022-11-17T12:18:02.333Z,1.37
2022-11-17T12:20:58.417Z,1.32
2022-11-17T12:24:11.100Z,1.34
2022-11-17T12:26:41.327Z,1.37
2022-11-17T12:29:27.196Z,1.44
2022-11-17T12:31:56.521Z,1.41
2022-11-17T12:34:27.551Z,1.42
2022-11-17T12:37:22.040Z,1.45
2022-11-17T12:40:03.916Z,1.43
2022-11-17T12:42:37.300Z,1.36
2022-11-17T12:45:10.311Z,1.36
2022-11-17T12:47:40.632Z,1.11
2022-11-17T12:50:33.825Z,1.80
2022-11-17T12:53:36.075Z,1.65
2022-11-17T12:56:29.083Z,1.34
2022-11-17T12:59:23.743Z,1.02
2022-11-17T13:02:00.412Z,0.86
2022-11-17T13:04:38.960Z,0.82
2022-11-17T13:07:09.052Z,0.65
2022-11-17T13:09:37.780Z,0.88
2022-11-17T13:12:08.065Z,1.17
2022-11-17T13:14:52.651Z,1.12
2022-11-17T13:17:21.829Z,1.09
2022-11-17T13:19:58.797Z,1.05
2022-11-17T13:22:27.020Z,1.06
2022-11-17T13:24:55.528Z,0.98
2022-11-17T13:27:25.463Z,0.70
2022-11-17T13:30:14.417Z,0.94
2022-11-17T13:32:43.442Z,0.88
2022-11-17T13:35:30.558Z,0.83
2022-11-17T13:38:03.543Z,0.78
2022-11-17T13:40:34.796Z,0.50
2022-11-17T13:43:04.567Z,0.71
2022-11-17T13:45:34.466Z,0.73
2022-11-17T13:48:02.643Z,0.68
2022-11-17T13:50:38.219Z,-0.41
2022-11-17T13:53:34.445Z,0.67
2022-11-17T13:56:02.830Z,0.66
2022-11-17T13:58:39.375Z,0.58
2022-11-17T14:01:13.278Z,0.44
2022-11-17T14:03:43.662Z,0.40
2022-11-17T14:06:14.377Z,0.11
2022-11-17T14:08:44.255Z,0.35
2022-11-17T14:11:21.624Z,0.24
2022-11-17T14:13:52.576Z,0.17
2022-11-17T14:16:26.629Z,0.01
2022-11-17T14:19:03.603Z,-0.13
2022-11-17T14:21:32.859Z,-0.12
2022-11-17T14:24:11.957Z,-0.24
2022-11-17T14:26:45.486Z,-0.35
2022-11-17T14:29:14.748Z,-0.55
2022-11-17T14:31:44.560Z,-0.74
2022-11-17T14:34:12.942Z,-0.77
2022-11-17T14:36:42.262Z,-0.90
2022-11-17T14:39:18.472Z,-0.98
2022-11-17T14:41:48.929Z,-1.13
2022-11-17T14:44:17.601Z,-1.19
2022-11-17T14:46:47.391Z,-1.35
2022-11-17T14:49:15.775Z,-1.26
2022-11-17T14:51:44.487Z,-1.51
2022-11-17T14:54:12.563Z,-1.67
2022-11-17T14:56:41.283Z,-1.63
2022-11-17T14:59:12.156Z,-1.73
2022-11-17T15:01:41.399Z,-1.76
2022-11-17T15:04:48.235Z,-1.81
2022-11-17T15:07:05.055Z,-1.89
2022-11-17T15:09:33.273Z,-2.23
2022-11-17T15:12:02.595Z,-1.81
2022-11-17T15:14:30.848Z,-1.72
2022-11-17T15:16:59.248Z,-1.73
2022-11-17T15:19:28.679Z,-1.74
2022-11-17T15:21:57.681Z,-2.00
2022-11-17T15:24:25.905Z,-1.79
2022-11-17T15:26:54.266Z,-1.86
2022-11-17T15:29:22.631Z,-1.92
2022-11-17T15:31:51.226Z,-2.30
2022-11-17T15:34:20.584Z,-2.17
2022-11-17T15:36:51.166Z,-2.15
2022-11-17T15:39:20.691Z,-2.59
2022-11-17T15:41:50.744Z,-2.47
2022-11-17T15:44:20.197Z,-2.22
2022-11-17T15:46:48.600Z,-2.23
2022-11-17T15:49:17.293Z,-2.18
2022-11-17T15:51:47.989Z,-2.28
2022-11-17T15:54:20.627Z,-2.65
2022-11-17T15:56:51.091Z,-2.37
2022-11-17T15:59:19.647Z,-2.37
2022-11-17T16:01:48.386Z,-2.41
2022-11-17T16:04:17.505Z,-2.48
2022-11-17T16:06:47.349Z,-2.63
2022-11-17T16:09:17.817Z,-2.82
2022-11-17T16:11:46.655Z,-2.64
2022-11-17T16:14:15.371Z,-2.71
2022-11-17T16:16:46.564Z,-2.76
2022-11-17T16:19:14.935Z,-2.80
2022-11-17T16:21:45.646Z,-2.88
2022-11-17T16:24:14.074Z,-2.80
2022-11-17T16:26:45.055Z,-2.85
2022-11-17T16:29:13.512Z,-2.96
2022-11-17T16:31:42.319Z,-2.91
2022-11-17T16:34:14.227Z,-2.92
2022-11-17T16:36:44.796Z,-2.97
2022-11-17T16:39:16.701Z,-3.00
2022-11-17T16:41:47.539Z,-3.50
2022-11-17T16:44:17.267Z,-2.89
2022-11-17T16:46:50.128Z,-2.99
2022-11-17T16:49:20.514Z,-3.19
2022-11-17T16:51:51.180Z,-3.18
2022-11-17T16:54:19.546Z,-3.25
2022-11-17T16:56:49.273Z,-3.26
2022-11-17T16:59:17.519Z,-3.39
2022-11-17T17:01:46.395Z,-3.35
2022-11-17T17:04:14.521Z,-3.28
2022-11-17T17:06:44.896Z,-3.44
2022-11-17T17:09:15.236Z,-3.26
2022-11-17T17:11:43.880Z,-3.26
2022-11-17T17:14:16.156Z,-3.27
2022-11-17T17:16:44.827Z,-3.26
2022-11-17T17:19:15.254Z,-3.33
2022-11-17T17:21:45.801Z,-3.48
2022-11-17T17:24:14.174Z,-3.67
2022-11-17T17:26:42.972Z,-3.73
2022-11-17T17:29:14.320Z,-3.74
2022-11-17T17:31:43.595Z,-3.66
2022-11-17T17:34:13.054Z,-3.50
2022-11-17T17:36:42.058Z,-3.19
2022-11-17T17:39:16.262Z,-2.96
2022-11-17T17:41:46.320Z,-2.79
2022-11-17T17:44:17.529Z,-2.65
2022-11-17T17:46:48.767Z,-2.55
2022-11-17T17:49:19.497Z,-2.51
2022-11-17T17:51:48.333Z,-2.62
2022-11-17T17:54:18.006Z,-2.36
2022-11-17T17:56:46.564Z,-2.24
2022-11-17T17:59:17.001Z,-2.22
2022-11-17T18:01:47.801Z,-2.15
2022-11-17T18:04:17.281Z,-2.01
2022-11-17T18:06:48.118Z,-1.97
2022-11-17T18:09:19.805Z,-1.92
2022-11-17T18:11:50.001Z,-1.79
2022-11-17T18:14:25.960Z,-1.70
2022-11-17T18:16:54.932Z,-1.71
2022-11-17T18:19:26.916Z,-1.60
2022-11-17T18:21:58.459Z,-1.52
2022-11-17T18:24:26.842Z,-1.51
2022-11-17T18:26:55.211Z,-1.53
2022-11-17T18:29:25.005Z,-1.49
2022-11-17T18:31:53.841Z,-1.43
2022-11-17T18:34:23.700Z,-1.37
2022-11-17T18:36:56.974Z,-1.35
2022-11-17T18:39:25.191Z,-1.33
2022-11-17T18:41:53.535Z,-1.29
2022-11-17T18:44:22.467Z,-1.29
2022-11-17T18:46:52.391Z,-1.29
2022-11-17T18:49:20.768Z,-1.21
2022-11-17T18:51:50.778Z,-1.19
2022-11-17T18:54:18.574Z,-1.12
2022-11-17T18:56:46.991Z,-1.07
2022-11-17T18:59:15.713Z,-1.21
2022-11-17T19:01:44.390Z,-0.97
2022-11-17T19:04:16.049Z,-0.89
2022-11-17T19:06:45.471Z,-1.21
2022-11-17T19:09:15.830Z,-0.85
2022-11-17T19:11:45.610Z,-0.78
2022-11-17T19:14:13.734Z,-0.73
2022-11-17T19:16:45.072Z,-0.73
2022-11-17T19:19:16.640Z,-0.70
2022-11-17T19:21:48.193Z,-0.68
2022-11-17T19:24:18.043Z,-0.69
2022-11-17T19:26:47.909Z,-0.62
2022-11-17T19:29:17.680Z,-0.59
2022-11-17T19:31:47.496Z,-0.62
2022-11-17T19:34:17.445Z,-0.56
2022-11-17T19:36:46.127Z,-0.56
2022-11-17T19:39:15.258Z,-0.50
2022-11-17T19:41:45.192Z,-0.50
2022-11-17T19:44:13.694Z,-0.52
2022-11-17T19:46:43.389Z,-0.97
2022-11-17T19:49:12.738Z,-0.66
2022-11-17T19:51:42.650Z,-0.71
2022-11-17T19:54:13.539Z,-0.78
2022-11-17T19:56:41.929Z,-0.77
2022-11-17T19:59:15.701Z,-0.84
2022-11-17T20:01:45.142Z,-0.95
2022-11-17T20:04:13.849Z,-1.17
2022-11-17T20:06:43.715Z,-1.24
2022-11-17T20:09:14.371Z,-1.38
2022-11-17T20:11:44.363Z,-1.58
2022-11-17T20:14:14.671Z,-1.78
2022-11-17T20:16:44.359Z,-1.84
2022-11-17T20:19:13.617Z,-2.17
2022-11-17T20:21:45.815Z,-2.06
2022-11-17T20:24:14.191Z,-2.16
2022-11-17T20:26:44.289Z,-2.29
2022-11-17T20:29:15.581Z,-2.30
2022-11-17T20:31:44.176Z,-2.26
2022-11-17T20:34:14.351Z,-2.23
2022-11-17T20:36:44.536Z,-2.03
2022-11-17T20:39:14.184Z,-1.89
2022-11-17T20:41:42.734Z,-1.83
2022-11-17T20:44:24.135Z,-1.90
2022-11-17T20:46:55.023Z,-1.76
2022-11-17T20:49:23.135Z,-1.74
2022-11-17T20:51:53.281Z,-1.68
2022-11-17T20:54:21.339Z,-1.61
2022-11-17T20:56:49.787Z,-1.51
2022-11-17T20:59:20.294Z,-1.45
2022-11-17T21:01:50.576Z,-1.36
2022-11-17T21:04:20.311Z,-1.19
2022-11-17T21:06:48.638Z,-1.12
2022-11-17T21:09:19.477Z,-1.06
2022-11-17T21:12:00.838Z,-1.04
2022-11-17T21:14:30.544Z,-1.28
2022-11-17T21:17:00.847Z,-0.98
2022-11-17T21:19:31.644Z,-0.97
2022-11-17T21:22:01.732Z,-0.98
2022-11-17T21:24:32.256Z,-1.03
2022-11-17T21:27:00.544Z,-1.08
2022-11-17T21:29:28.892Z,-0.98
2022-11-17T21:31:57.266Z,-0.90
2022-11-17T21:34:25.290Z,-0.85
2022-11-17T21:36:54.849Z,-1.07
2022-11-17T21:39:22.974Z,-0.97
2022-11-17T21:41:52.689Z,-0.97
2022-11-17T21:44:21.160Z,-0.93
2022-11-17T21:46:49.691Z,-0.94
2022-11-17T21:49:18.224Z,-1.09
2022-11-17T21:51:46.803Z,-0.98
2022-11-17T21:54:15.138Z,-1.00
2022-11-17T21:56:43.509Z,-1.48
2022-11-17T21:59:14.588Z,-0.99
2022-11-17T22:01:43.436Z,-1.08
2022-11-17T22:04:12.733Z,-1.34
2022-11-17T22:06:41.238Z,-1.16
2022-11-17T22:09:09.568Z,-1.45
2022-11-17T22:11:39.094Z,-1.01
2022-11-17T22:14:10.409Z,-1.01
2022-11-17T22:16:41.864Z,-1.08
2022-11-17T22:19:10.717Z,-1.35
2022-11-17T22:21:40.226Z,-1.01
2022-11-17T22:24:10.887Z,-1.03
2022-11-17T22:26:41.118Z,-1.04
2022-11-17T22:29:12.828Z,-1.35
2022-11-17T22:31:42.894Z,-1.27
2022-11-17T22:34:14.743Z,-1.36
2022-11-17T22:36:43.397Z,-1.44
2022-11-17T22:39:11.594Z,-1.38
2022-11-17T22:41:40.540Z,-1.57
2022-11-17T22:44:08.874Z,-1.30
2022-11-17T22:46:37.285Z,-1.20
2022-11-17T22:49:07.141Z,-1.18
2022-11-17T22:51:52.907Z,-1.19
2022-11-17T22:54:21.267Z,-1.21
2022-11-17T22:56:49.735Z,-1.29
2022-11-17T22:59:18.389Z,-1.33
2022-11-17T23:01:46.957Z,-1.61
2022-11-17T23:04:16.769Z,-1.32
2022-11-17T23:06:45.536Z,-1.52
2022-11-17T23:09:13.869Z,-1.35
2022-11-17T23:11:43.118Z,-1.38
2022-11-17T23:14:13.360Z,-1.29
2022-11-17T23:16:42.533Z,-1.39
2022-11-17T23:19:13.817Z,-1.42
2022-11-17T23:21:43.677Z,-1.39
2022-11-17T23:24:13.039Z,-1.38
2022-11-17T23:26:42.309Z,-1.45
2022-11-17T23:29:10.523Z,-1.40
2022-11-17T23:31:39.044Z,-1.31
2022-11-17T23:34:09.988Z,-1.32
2022-11-17T23:36:38.576Z,-1.25
2022-11-17T23:39:08.417Z,-1.30
2022-11-17T23:41:36.943Z,-1.37
2022-11-17T23:44:05.412Z,-1.31
2022-11-17T23:46:33.918Z,-1.28
2022-11-17T23:49:03.675Z,-1.34
2022-11-17T23:51:32.082Z,-1.30
2022-11-17T23:54:02.749Z,-1.44
2022-11-17T23:56:35.019Z,-1.48
2022-11-17T23:59:03.623Z,-1.22
